Weather reports worldwide

Advertisment
Valencia, Spain (8285): temperature & dewpoint: 08.12.2018 00:00:00 - 14.12.2018 00:00:00 (CET)Valencia, Spain (8285): wind speed & gusts: 08.12.2018 00:00:00 - 14.12.2018 00:00:00 (CET)Valencia, Spain (8285): wind direction: 08.12.2018 00:00:00 - 14.12.2018 00:00:00 (CET)Valencia, Spain (8285): precipitation: 08.12.2018 00:00:00 - 14.12.2018 00:00:00 (CET)
Date & Time tt [°C] td [°C] ff [km/h] ff [kn] fx [km/h] fx [kn] dd rr [mm]
14.12.2018 00:00:00 12,3 1,7 12 6 27 14 NNW 0,0
13.12.2018 23:00:00 11,4 1,9 8 4 34 18 NNW 0,0
13.12.2018 22:00:00 9,9 4,8 6 3 18 10 NNW 0,2
13.12.2018 21:00:00 9,4 5,9 5 3 24 13 WNW 0,6
13.12.2018 20:00:00 9,3 6,2 14 7 31 17 W 2,6
13.12.2018 19:00:00 9,5 6,2 10 5 37 20 WNW -
13.12.2018 18:00:00 12,3 2,7 12 7 39 21 WNW 0,0
13.12.2018 17:00:00 13,9 3,0 11 6 40 21 W 0,0
13.12.2018 16:00:00 14,2 4,5 14 8 32 17 WSW 0,0
13.12.2018 15:00:00 13,7 8,1 9 5 16 9 SSW 0,0
13.12.2018 14:00:00 13,9 8,3 9 5 22 12 S 0,1
13.12.2018 13:00:00 14,1 7,4 11 6 18 10 WSW -
13.12.2018 12:00:00 12,9 8,4 9 5 18 10 SSW 0,0
13.12.2018 11:00:00 11,8 8,3 4 2 18 10 S 0,0
13.12.2018 10:00:00 11,2 8,4 8 5 15 8 SSW 0,4
13.12.2018 09:00:00 11,1 8,5 7 4 17 9 SSW 2,4
13.12.2018 08:00:00 11,8 6,8 8 5 26 14 W 1,3
13.12.2018 07:00:00 13,2 5,3 8 4 27 14 W -
13.12.2018 06:00:00 13,8 4,3 12 7 28 15 WSW 0,0
13.12.2018 05:00:00 14,5 3,0 10 6 25 13 WSW 0,0
13.12.2018 04:00:00 14,8 3,0 11 6 32 18 WSW 0,0
13.12.2018 03:00:00 15,1 3,2 13 7 36 19 W 0,0
13.12.2018 02:00:00 14,7 2,9 9 5 29 16 W 0,0
13.12.2018 01:00:00 14,5 3,0 8 4 20 11 WSW -
13.12.2018 00:00:00 13,9 3,0 11 6 20 11 WSW 0,0
12.12.2018 23:00:00 13,7 2,9 10 5 22 12 SW 0,0
12.12.2018 22:00:00 13,4 3,2 3 2 19 11 SW 0,0
12.12.2018 21:00:00 13,5 3,2 8 4 27 15 WSW 0,0
12.12.2018 20:00:00 13,5 3,2 10 6 29 16 WSW 0,0
12.12.2018 19:00:00 14,1 3,2 8 4 20 11 WSW -
12.12.2018 18:00:00 15,4 2,9 6 3 19 11 SSW 0,0
12.12.2018 17:00:00 17,3 2,9 10 5 20 11 SSW 0,0
12.12.2018 16:00:00 19,4 3,0 9 5 19 10 SW 0,0
12.12.2018 15:00:00 19,6 3,2 8 5 17 9 SSW 0,0
12.12.2018 14:00:00 - - - - - - - -
12.12.2018 13:00:00 - - - - - - - -
12.12.2018 12:00:00 17,1 2,7 7 4 13 7 SW 0,0
12.12.2018 11:00:00 14,9 3,4 8 4 14 7 WSW 0,0
12.12.2018 10:00:00 11,6 2,7 3 1 10 5 S 0,0
12.12.2018 09:00:00 9,5 1,9 5 3 12 7 W 0,0
12.12.2018 08:00:00 9,6 1,7 5 3 15 8 W 0,0
12.12.2018 07:00:00 10,1 1,5 4 2 19 11 W -
12.12.2018 06:00:00 9,9 1,1 5 3 18 10 W 0,0
12.12.2018 05:00:00 8,9 2,1 5 3 14 7 WSW 0,0
12.12.2018 04:00:00 7,5 5,0 0 0 7 4 WNW 0,0
12.12.2018 03:00:00 7,7 5,0 1 1 7 4 N 0,0
12.12.2018 02:00:00 8,6 5,8 0 0 10 5 NNW 0,0
12.12.2018 01:00:00 9,2 5,8 4 2 10 5 W -
12.12.2018 00:00:00 9,8 6,8 6 3 11 6 WSW 0,0
11.12.2018 23:00:00 10,0 7,4 2 1 13 7 W 0,0
11.12.2018 22:00:00 10,1 8,0 4 2 7 4 WSW 0,0
11.12.2018 21:00:00 10,5 8,4 2 1 6 4 W 0,0
11.12.2018 20:00:00 11,1 8,5 0 0 5 3 W 0,0
11.12.2018 19:00:00 11,7 8,5 3 2 7 4 N -
11.12.2018 18:00:00 12,8 8,5 2 1 9 5 N 0,0
11.12.2018 17:00:00 14,2 7,0 0 0 10 5 W 0,0
11.12.2018 16:00:00 15,6 4,3 1 1 11 6 NE 0,0
11.12.2018 15:00:00 16,5 4,8 3 2 9 5 NNE 0,0
11.12.2018 14:00:00 17,0 4,3 3 1 13 7 W 0,0
11.12.2018 13:00:00 15,4 3,2 4 2 11 6 S -
11.12.2018 12:00:00 14,7 4,3 4 2 8 4 S 0,0
11.12.2018 11:00:00 12,6 3,6 1 1 6 4 WSW 0,0
11.12.2018 10:00:00 9,1 2,3 2 1 10 6 W 0,0
11.12.2018 09:00:00 8,2 2,7 3 1 10 5 W 0,0
11.12.2018 08:00:00 7,7 1,3 4 2 10 5 WSW 0,0
11.12.2018 07:00:00 8,2 2,7 4 2 9 5 WSW -
11.12.2018 06:00:00 8,4 4,3 3 2 12 6 W 0,0
11.12.2018 05:00:00 8,8 5,5 6 3 11 6 W 0,0
11.12.2018 04:00:00 8,9 6,2 3 1 9 5 WSW 0,0
11.12.2018 03:00:00 9,3 6,5 3 2 11 6 WSW 0,0
11.12.2018 02:00:00 9,6 7,1 3 2 8 4 WSW 0,0
11.12.2018 01:00:00 9,6 7,1 4 2 9 5 WSW -
11.12.2018 00:00:00 10,1 7,6 4 2 8 4 WSW 0,0
10.12.2018 23:00:00 10,3 7,6 3 2 6 3 WSW 0,0
10.12.2018 22:00:00 10,6 7,8 2 1 6 4 WSW 0,0
10.12.2018 21:00:00 11,0 7,8 0 0 7 4 N 0,0
10.12.2018 20:00:00 11,4 7,8 3 1 5 3 N 0,0
10.12.2018 19:00:00 12,2 7,7 0 0 7 4 ENE -
10.12.2018 18:00:00 13,6 7,1 5 3 11 6 ESE 0,0
10.12.2018 17:00:00 15,7 7,0 6 3 15 8 ESE 0,0
10.12.2018 16:00:00 16,6 6,7 8 5 19 11 SE 0,0
10.12.2018 15:00:00 17,0 7,1 9 5 21 12 SE 0,0
10.12.2018 14:00:00 16,6 7,6 10 5 22 12 SE 0,0
10.12.2018 13:00:00 17,5 7,3 6 4 19 10 S -
10.12.2018 12:00:00 17,6 4,8 4 2 11 6 SSW 0,0
10.12.2018 11:00:00 14,8 1,3 5 3 10 5 WSW 0,0
10.12.2018 10:00:00 11,7 -0,3 4 2 14 8 WSW 0,0
10.12.2018 09:00:00 9,9 -1,0 5 3 15 8 WSW 0,0
10.12.2018 08:00:00 9,7 -0,5 4 2 11 6 W 0,0
10.12.2018 07:00:00 9,2 -0,3 5 3 8 5 SW -
10.12.2018 06:00:00 10,0 -0,7 6 3 11 6 WSW 0,0
10.12.2018 05:00:00 10,6 -1,0 2 1 13 7 WSW 0,0
10.12.2018 04:00:00 10,9 -1,2 1 0 8 4 WSW 0,0
10.12.2018 03:00:00 11,9 -1,2 4 2 12 6 WSW 0,0
10.12.2018 02:00:00 13,2 -1,2 7 4 13 7 WSW 0,0
10.12.2018 01:00:00 13,9 -1,4 6 3 21 11 SW -
10.12.2018 00:00:00 14,1 0,6 7 4 13 7 S 0,0
09.12.2018 23:00:00 14,6 2,1 7 4 16 9 SW 0,0
09.12.2018 22:00:00 16,1 0,6 8 4 17 9 W 0,0
09.12.2018 21:00:00 15,1 5,8 7 4 11 6 SW 0,0
09.12.2018 20:00:00 15,1 5,6 0 0 10 5 NW 0,0
09.12.2018 19:00:00 16,9 4,6 4 2 10 5 SW -
09.12.2018 18:00:00 18,6 4,3 4 2 10 5 WSW 0,0
09.12.2018 17:00:00 21,0 3,6 4 2 11 6 W 0,0
09.12.2018 16:00:00 23,5 3,4 8 4 21 11 SW 0,0
09.12.2018 15:00:00 23,5 3,4 10 5 19 10 SW 0,0
09.12.2018 14:00:00 23,7 4,1 6 3 15 8 WSW 0,0
09.12.2018 13:00:00 22,2 3,8 7 4 14 8 WSW -
09.12.2018 12:00:00 19,7 3,4 5 3 16 8 WSW 0,0
09.12.2018 11:00:00 16,5 2,9 8 4 16 8 SW 0,0
09.12.2018 10:00:00 13,6 1,5 6 3 14 8 SW 0,0
09.12.2018 09:00:00 11,1 1,9 7 4 12 7 WSW 0,0
09.12.2018 08:00:00 10,7 2,1 6 4 10 5 WSW 0,0
09.12.2018 07:00:00 10,6 2,5 6 3 9 5 WSW -
09.12.2018 06:00:00 10,4 2,5 5 3 9 5 WSW 0,0
09.12.2018 05:00:00 9,8 3,0 4 2 10 6 W 0,0
09.12.2018 04:00:00 10,1 3,4 5 3 10 5 WSW 0,0
09.12.2018 03:00:00 10,0 4,1 5 3 10 5 WSW 0,0
09.12.2018 02:00:00 10,2 4,5 5 3 13 7 WSW 0,0
09.12.2018 01:00:00 10,4 5,3 5 3 12 6 W -
09.12.2018 00:00:00 10,4 6,1 5 3 14 8 WSW 0,0
08.12.2018 23:00:00 10,6 7,0 6 3 13 7 WSW 0,0
08.12.2018 22:00:00 11,3 8,5 4 2 7 4 W 0,0
08.12.2018 21:00:00 11,7 8,5 3 1 6 3 NNE 0,0
08.12.2018 20:00:00 12,9 9,2 0 0 7 4 NNW 0,0
08.12.2018 19:00:00 14,7 9,6 4 2 27 14 SSW -
08.12.2018 18:00:00 15,5 8,9 6 3 19 10 SSE 0,0
08.12.2018 17:00:00 16,6 6,7 6 3 19 11 SSE 0,0
08.12.2018 16:00:00 18,4 2,3 6 3 14 8 SSE 0,0
08.12.2018 15:00:00 19,0 2,9 4 2 14 8 SSE 0,0
08.12.2018 14:00:00 19,0 3,6 5 3 12 6 SW 0,0
08.12.2018 13:00:00 18,1 3,6 1 1 10 5 WSW -
08.12.2018 12:00:00 16,7 5,3 2 1 11 6 N 0,0
08.12.2018 11:00:00 13,6 4,5 5 3 12 6 SSW 0,0
08.12.2018 10:00:00 11,8 4,8 5 3 10 5 SW 0,0
08.12.2018 09:00:00 9,6 4,5 2 1 9 5 W 0,0
08.12.2018 08:00:00 9,4 4,1 4 2 8 4 SSW 0,0
08.12.2018 07:00:00 9,5 4,3 2 1 8 5 W -
08.12.2018 06:00:00 10,3 4,6 5 3 11 6 WSW 0,0
08.12.2018 05:00:00 10,0 4,8 3 2 11 6 WSW 0,0
08.12.2018 04:00:00 10,1 5,5 1 1 11 6 WSW 0,0
08.12.2018 03:00:00 9,7 6,4 3 2 8 4 WSW 0,0
08.12.2018 02:00:00 10,0 7,4 2 1 8 4 WSW 0,0
08.12.2018 01:00:00 10,3 7,8 2 1 6 3 SW -
08.12.2018 00:00:00 10,8 8,9 3 1 7 4 WSW 0,0

tt = temperature
td = dewpoint
ff = wind speed
fx = gusts
dd = wind direction
rr = precipitation

Next stations